createdAt,value
2017-08-08T00:00:22.850Z,49.85
2017-08-08T00:02:54.340Z,49.11
2017-08-08T00:05:25.325Z,48.77
2017-08-08T00:07:56.328Z,48.73
2017-08-08T00:10:27.729Z,49.46
2017-08-08T00:12:58.733Z,50.10
2017-08-08T00:15:29.719Z,50.55
2017-08-08T00:18:01.307Z,50.15
2017-08-08T00:20:32.276Z,50.79
2017-08-08T00:23:03.687Z,50.42
2017-08-08T00:25:34.718Z,50.92
2017-08-08T00:28:06.372Z,50.66
2017-08-08T00:30:37.864Z,51.36
2017-08-08T00:33:09.077Z,49.91
2017-08-08T00:35:40.315Z,50.85
2017-08-08T00:38:11.340Z,50.65
2017-08-08T00:40:42.451Z,51.08
2017-08-08T00:43:13.975Z,51.49
2017-08-08T00:45:45.109Z,51.55
2017-08-08T00:48:16.594Z,51.22
2017-08-08T00:50:47.603Z,51.31
2017-08-08T00:53:18.783Z,51.97
2017-08-08T00:55:50.144Z,51.57
2017-08-08T00:58:21.490Z,51.43
2017-08-08T01:00:52.536Z,51.37
2017-08-08T01:03:23.592Z,51.25
2017-08-08T01:05:54.841Z,51.85
2017-08-08T01:08:26.449Z,51.97
2017-08-08T01:10:57.455Z,52.35
2017-08-08T01:13:28.763Z,52.21
2017-08-08T01:16:00.099Z,52.27
2017-08-08T01:18:31.437Z,52.39
2017-08-08T01:21:04.975Z,52.75
2017-08-08T01:23:36.019Z,52.53
2017-08-08T01:26:07.128Z,52.31
2017-08-08T01:28:38.711Z,52.31
2017-08-08T01:31:09.842Z,52.34
2017-08-08T01:33:41.147Z,53.23
2017-08-08T01:36:12.267Z,53.27
2017-08-08T01:38:43.329Z,53.35
2017-08-08T01:41:14.659Z,53.50
2017-08-08T01:43:45.764Z,53.32
2017-08-08T01:46:16.891Z,53.25
2017-08-08T01:48:48.390Z,52.80
2017-08-08T01:51:19.865Z,52.95
2017-08-08T01:53:50.974Z,53.74
2017-08-08T01:56:22.167Z,53.66
2017-08-08T01:58:53.590Z,53.78
2017-08-08T02:01:24.779Z,54.00
2017-08-08T02:03:55.941Z,54.22
2017-08-08T02:06:27.354Z,54.65
2017-08-08T02:08:58.423Z,54.93
2017-08-08T02:11:29.546Z,54.73
2017-08-08T02:14:01.009Z,55.06
2017-08-08T02:16:32.048Z,54.92
2017-08-08T02:19:03.243Z,54.83
2017-08-08T02:21:34.285Z,54.51
2017-08-08T02:24:05.758Z,54.32
2017-08-08T02:26:37.326Z,54.42
2017-08-08T02:29:08.333Z,54.14
2017-08-08T02:31:39.563Z,53.98
2017-08-08T02:34:11.012Z,53.75
2017-08-08T02:36:42.030Z,54.23
2017-08-08T02:39:13.162Z,54.21
2017-08-08T02:41:45.577Z,54.01
2017-08-08T02:44:16.563Z,54.20
2017-08-08T02:46:47.824Z,54.11
2017-08-08T02:49:18.860Z,53.83
2017-08-08T02:51:49.851Z,53.41
2017-08-08T02:54:21.288Z,53.64
2017-08-08T02:56:52.287Z,53.67
2017-08-08T02:59:23.327Z,53.13
2017-08-08T03:01:54.727Z,53.15
2017-08-08T03:04:25.733Z,53.03
2017-08-08T03:06:56.772Z,53.09
2017-08-08T03:09:28.139Z,53.54
2017-08-08T03:11:59.126Z,53.67
2017-08-08T03:14:30.436Z,53.21
2017-08-08T03:17:01.973Z,53.36
2017-08-08T03:19:32.992Z,53.14
2017-08-08T03:22:05.185Z,53.50
2017-08-08T03:24:36.617Z,53.39
2017-08-08T03:27:07.646Z,53.83
2017-08-08T03:29:38.654Z,54.28
2017-08-08T03:32:10.068Z,53.67
2017-08-08T03:34:41.089Z,54.40
2017-08-08T03:37:12.391Z,54.73
2017-08-08T03:39:43.463Z,54.92
2017-08-08T03:42:14.512Z,55.30
2017-08-08T03:44:47.003Z,55.53
2017-08-08T03:47:18.063Z,54.88
2017-08-08T03:49:49.076Z,55.63
2017-08-08T03:52:20.429Z,56.18
2017-08-08T03:54:51.451Z,57.01
2017-08-08T03:57:22.444Z,56.80
2017-08-08T03:59:53.736Z,57.13
2017-08-08T04:02:24.748Z,57.06
2017-08-08T04:04:55.763Z,57.23
2017-08-08T04:07:27.071Z,57.49
2017-08-08T04:09:58.117Z,57.14
2017-08-08T04:12:29.151Z,57.08
2017-08-08T04:15:00.613Z,57.28
2017-08-08T04:17:31.642Z,57.58
2017-08-08T04:20:04.536Z,57.42
2017-08-08T04:22:35.872Z,57.29
2017-08-08T04:25:06.909Z,57.24
2017-08-08T04:27:37.910Z,57.15
2017-08-08T04:30:09.314Z,56.86
2017-08-08T04:32:40.474Z,56.84
2017-08-08T04:35:11.525Z,56.70
2017-08-08T04:37:42.932Z,56.92
2017-08-08T04:40:13.943Z,57.31
2017-08-08T04:42:44.970Z,57.28
2017-08-08T04:45:16.025Z,57.28
2017-08-08T04:47:47.057Z,57.03
2017-08-08T04:50:18.382Z,57.06
2017-08-08T04:52:49.397Z,56.92
2017-08-08T04:55:20.460Z,56.83
2017-08-08T04:57:51.899Z,56.85
2017-08-08T05:00:22.923Z,56.70
2017-08-08T05:02:53.960Z,56.83
2017-08-08T05:05:25.428Z,56.81
2017-08-08T05:07:56.971Z,56.64
2017-08-08T05:10:28.082Z,56.56
2017-08-08T05:12:59.515Z,56.17
2017-08-08T05:15:30.588Z,55.60
2017-08-08T05:18:02.423Z,55.40
2017-08-08T05:20:33.483Z,55.44
2017-08-08T05:24:07.226Z,55.01
2017-08-08T05:26:38.262Z,54.63
2017-08-08T05:29:09.625Z,54.24
2017-08-08T05:31:41.164Z,53.76
2017-08-08T05:34:12.277Z,54.01
2017-08-08T05:36:43.647Z,53.91
2017-08-08T05:39:14.668Z,53.91
2017-08-08T05:41:45.720Z,53.78
2017-08-08T05:44:17.202Z,53.83
2017-08-08T05:46:48.267Z,54.06
2017-08-08T05:49:19.362Z,54.11
2017-08-08T05:51:50.494Z,53.96
2017-08-08T05:54:21.584Z,54.58
2017-08-08T05:56:53.195Z,54.04
2017-08-08T05:59:24.334Z,53.70
2017-08-08T06:01:55.928Z,53.40
2017-08-08T06:04:26.941Z,53.25
2017-08-08T06:06:57.996Z,52.63
2017-08-08T06:09:29.416Z,52.42
2017-08-08T06:12:00.469Z,51.98
2017-08-08T06:14:31.508Z,51.67
2017-08-08T06:17:02.553Z,52.40
2017-08-08T06:19:33.565Z,52.79
2017-08-08T06:22:05.562Z,52.80
2017-08-08T06:24:36.599Z,52.65
2017-08-08T06:27:07.873Z,52.32
2017-08-08T06:29:38.903Z,51.75
2017-08-08T06:32:09.997Z,51.54
2017-08-08T06:34:41.484Z,51.33
2017-08-08T06:37:12.479Z,51.15
2017-08-08T06:39:43.516Z,51.50
2017-08-08T06:42:15.056Z,51.55
2017-08-08T06:44:46.162Z,51.97
2017-08-08T06:47:17.171Z,51.79
2017-08-08T06:49:48.473Z,51.68
2017-08-08T06:52:19.479Z,51.64
2017-08-08T06:54:50.859Z,51.27
2017-08-08T06:57:21.869Z,50.46
2017-08-08T06:59:52.866Z,50.22
2017-08-08T07:05:06.263Z,50.56
2017-08-08T07:07:37.330Z,50.36
2017-08-08T07:10:08.735Z,50.10
2017-08-08T07:12:39.788Z,49.79
2017-08-08T07:15:10.830Z,50.44
2017-08-08T07:17:42.397Z,50.12
2017-08-08T07:20:13.604Z,51.34
2017-08-08T07:22:44.895Z,50.82
2017-08-08T07:25:15.954Z,50.89
2017-08-08T07:27:47.044Z,51.23
2017-08-08T07:30:18.504Z,51.42
2017-08-08T07:32:49.624Z,52.08
2017-08-08T07:35:20.668Z,52.00
2017-08-08T07:37:52.171Z,51.52
2017-08-08T07:40:23.219Z,51.03
2017-08-08T07:42:54.258Z,51.10
2017-08-08T07:45:25.310Z,50.46
2017-08-08T07:47:56.760Z,51.31
2017-08-08T07:50:27.775Z,51.67
2017-08-08T07:52:58.799Z,52.19
2017-08-08T07:55:30.323Z,52.01
2017-08-08T07:58:01.332Z,51.82
2017-08-08T08:00:32.402Z,50.79
2017-08-08T08:03:03.431Z,50.73
2017-08-08T08:05:34.525Z,49.86
2017-08-08T08:08:06.371Z,50.54
2017-08-08T08:10:37.499Z,50.36
2017-08-08T08:13:08.803Z,50.40
2017-08-08T08:15:39.858Z,50.60
2017-08-08T08:18:10.852Z,50.89
2017-08-08T08:20:42.210Z,50.64
2017-08-08T08:23:13.231Z,50.02
2017-08-08T08:25:44.248Z,50.57
2017-08-08T08:28:15.305Z,50.72
2017-08-08T08:30:46.331Z,50.84
2017-08-08T08:33:17.780Z,50.20
2017-08-08T08:35:48.912Z,49.80
2017-08-08T08:38:20.182Z,49.64
2017-08-08T08:40:51.215Z,49.51
2017-08-08T08:43:22.222Z,50.05
2017-08-08T08:45:53.675Z,49.45
2017-08-08T08:48:24.676Z,50.30
2017-08-08T08:50:55.818Z,50.24
2017-08-08T08:53:27.292Z,50.22
2017-08-08T08:55:58.348Z,50.59
2017-08-08T08:58:29.370Z,49.78
2017-08-08T09:01:00.748Z,50.07
2017-08-08T09:06:28.339Z,50.07
2017-08-08T09:08:59.448Z,50.06
2017-08-08T09:11:30.537Z,50.15
2017-08-08T09:14:01.885Z,49.44
2017-08-08T09:16:51.959Z,48.91
2017-08-08T09:19:52.681Z,48.36
2017-08-08T09:22:50.878Z,48.87
2017-08-08T09:28:17.594Z,50.08
2017-08-08T09:30:48.628Z,51.38
2017-08-08T09:33:19.988Z,52.20
2017-08-08T09:35:51.100Z,52.73
2017-08-08T09:38:22.330Z,53.24
2017-08-08T09:40:54.104Z,53.24
2017-08-08T09:43:25.296Z,53.00
2017-08-08T09:45:56.852Z,52.71
2017-08-08T09:48:27.991Z,52.37
2017-08-08T09:50:59.776Z,52.21
2017-08-08T09:53:32.132Z,52.06
2017-08-08T09:56:04.301Z,51.52
2017-08-08T09:58:35.374Z,50.92
2017-08-08T10:01:06.924Z,50.96
2017-08-08T10:03:37.986Z,50.53
2017-08-08T10:06:09.467Z,49.89
2017-08-08T10:08:40.861Z,49.27
2017-08-08T10:11:12.786Z,49.27
2017-08-08T10:13:43.889Z,48.76
2017-08-08T10:16:19.298Z,48.35
2017-08-08T10:18:50.416Z,47.48
2017-08-08T10:21:21.793Z,46.88
2017-08-08T10:23:52.876Z,46.28
2017-08-08T10:26:23.991Z,46.13
2017-08-08T10:28:55.288Z,46.73
2017-08-08T10:31:26.339Z,46.87
2017-08-08T10:33:57.711Z,46.63
2017-08-08T10:36:29.073Z,46.30
2017-08-08T10:39:00.885Z,45.41
2017-08-08T10:41:32.769Z,45.21
2017-08-08T10:44:05.284Z,44.30
2017-08-08T10:46:36.838Z,43.46
2017-08-08T10:49:08.547Z,42.58
2017-08-08T10:51:40.119Z,41.50
2017-08-08T10:54:13.243Z,41.40
2017-08-08T10:56:44.437Z,41.66
2017-08-08T10:59:15.783Z,42.62
2017-08-08T11:01:46.865Z,45.52
2017-08-08T11:04:18.345Z,46.09
2017-08-08T11:06:50.094Z,46.77
2017-08-08T11:09:21.175Z,47.28
2017-08-08T11:11:52.326Z,48.01
2017-08-08T11:14:24.863Z,47.73
2017-08-08T11:16:55.911Z,47.23
2017-08-08T11:19:27.247Z,47.01
2017-08-08T11:21:58.686Z,47.50
2017-08-08T11:24:31.201Z,47.96
2017-08-08T11:27:02.627Z,47.78
2017-08-08T11:29:34.075Z,47.73
2017-08-08T11:32:09.646Z,47.71
2017-08-08T11:34:41.142Z,47.71
2017-08-08T11:37:12.248Z,46.65
2017-08-08T11:39:43.419Z,45.38
2017-08-08T11:42:17.571Z,44.30
2017-08-08T11:44:49.661Z,43.31
2017-08-08T11:47:21.042Z,42.19
2017-08-08T11:49:52.180Z,41.33
2017-08-08T11:52:23.335Z,40.20
2017-08-08T11:54:54.959Z,39.69
2017-08-08T11:57:25.995Z,39.23
2017-08-08T11:59:57.128Z,38.86
2017-08-08T12:02:28.782Z,40.09
2017-08-08T12:04:59.939Z,39.67
2017-08-08T12:07:31.124Z,39.10
2017-08-08T12:10:05.291Z,38.10
2017-08-08T12:12:38.810Z,37.87
2017-08-08T12:15:10.388Z,39.43
2017-08-08T12:17:41.604Z,41.38
2017-08-08T12:20:13.922Z,42.33
2017-08-08T12:22:46.314Z,41.85
2017-08-08T12:25:17.617Z,43.42
2017-08-08T12:27:49.017Z,43.27
2017-08-08T12:30:20.940Z,43.28
2017-08-08T12:32:52.260Z,42.51
2017-08-08T12:35:23.583Z,41.89
2017-08-08T12:37:54.743Z,42.30
2017-08-08T12:40:26.669Z,41.76
2017-08-08T12:42:58.592Z,42.12
2017-08-08T12:45:31.946Z,42.63
2017-08-08T12:48:04.917Z,42.86
2017-08-08T12:50:36.020Z,43.26
2017-08-08T12:53:07.222Z,41.62
2017-08-08T12:55:40.627Z,41.02
2017-08-08T12:58:12.251Z,40.53
2017-08-08T13:00:43.406Z,39.75
2017-08-08T13:03:14.531Z,38.68
2017-08-08T13:05:45.720Z,37.66
2017-08-08T13:08:19.277Z,35.52
2017-08-08T13:10:50.448Z,34.43
2017-08-08T13:13:21.635Z,33.95
2017-08-08T13:15:54.317Z,34.91
2017-08-08T13:18:25.575Z,37.09
2017-08-08T13:20:57.145Z,38.65
2017-08-08T13:23:32.045Z,40.26
2017-08-08T13:26:04.287Z,42.78
2017-08-08T13:28:35.578Z,43.97
2017-08-08T13:31:10.485Z,44.64
2017-08-08T13:33:47.663Z,46.40
2017-08-08T13:36:22.538Z,46.72
2017-08-08T13:38:55.671Z,47.25
2017-08-08T13:41:29.673Z,47.20
2017-08-08T13:44:06.573Z,47.12
2017-08-08T13:46:41.672Z,47.45
2017-08-08T13:49:15.548Z,47.83
2017-08-08T13:52:11.513Z,48.32
2017-08-08T14:00:36.877Z,46.63
2017-08-08T14:03:15.057Z,46.14
2017-08-08T14:05:53.650Z,44.80
2017-08-08T14:08:28.576Z,43.13
2017-08-08T14:11:14.447Z,40.88
2017-08-08T18:47:16.672Z,49.78
2017-08-08T18:49:47.881Z,50.32
2017-08-08T18:52:19.464Z,50.60
2017-08-08T18:54:50.785Z,51.15
2017-08-08T18:57:22.342Z,51.19
2017-08-08T18:59:53.571Z,51.31
2017-08-08T19:02:24.905Z,51.56
2017-08-08T19:04:56.648Z,51.78
2017-08-08T19:07:27.778Z,52.08
2017-08-08T19:09:58.934Z,52.39
2017-08-08T19:12:30.578Z,52.56
2017-08-08T19:15:01.787Z,52.56
2017-08-08T19:17:33.198Z,52.63
2017-08-08T19:20:05.193Z,52.70
2017-08-08T19:22:36.315Z,52.94
2017-08-08T19:25:07.676Z,52.92
2017-08-08T19:27:38.755Z,53.23
2017-08-08T19:30:09.860Z,53.66
2017-08-08T19:32:41.299Z,53.69
2017-08-08T19:35:12.434Z,53.78
2017-08-08T19:37:43.837Z,53.85
2017-08-08T19:40:15.049Z,54.05
2017-08-08T19:42:46.397Z,54.17
2017-08-08T19:45:17.497Z,54.23
2017-08-08T19:47:48.698Z,54.31
2017-08-08T19:50:20.214Z,54.40
2017-08-08T19:52:51.399Z,54.56
2017-08-08T19:55:22.689Z,54.86
2017-08-08T20:00:34.449Z,55.02
2017-08-08T20:03:06.011Z,55.10
2017-08-08T20:05:37.146Z,55.10
2017-08-08T20:08:08.513Z,55.32
2017-08-08T20:10:39.603Z,55.60
2017-08-08T20:13:10.630Z,55.68
2017-08-08T20:15:41.772Z,55.56
2017-08-08T20:18:12.893Z,54.93
2017-08-08T20:20:44.255Z,55.22
2017-08-08T20:23:15.310Z,55.00
2017-08-08T20:25:46.386Z,55.15
2017-08-08T20:28:18.760Z,55.04
2017-08-08T20:30:49.807Z,55.09
2017-08-08T20:33:20.885Z,54.97
2017-08-08T20:35:52.197Z,55.07
2017-08-08T20:38:23.265Z,55.10
2017-08-08T20:40:54.308Z,54.80
2017-08-08T20:43:25.679Z,54.23
2017-08-08T20:45:56.743Z,54.52
2017-08-08T20:48:27.808Z,54.39
2017-08-08T20:50:59.155Z,54.49
2017-08-08T20:53:30.220Z,54.29
2017-08-08T20:56:02.149Z,54.21
2017-08-08T20:58:33.174Z,54.30
2017-08-08T21:04:00.296Z,54.98
2017-08-08T21:06:31.347Z,55.07
2017-08-08T21:09:02.804Z,54.77
2017-08-08T21:11:33.902Z,54.72
2017-08-08T21:14:06.115Z,54.63
2017-08-08T21:16:37.315Z,54.46
2017-08-08T21:19:08.390Z,54.23
2017-08-08T21:21:40.040Z,53.93
2017-08-08T21:24:11.281Z,52.62
2017-08-08T21:26:42.747Z,51.14
2017-08-08T21:29:14.329Z,50.74
2017-08-08T21:31:45.388Z,51.00
2017-08-08T21:34:16.743Z,50.39
2017-08-08T21:36:47.749Z,50.34
2017-08-08T21:39:18.796Z,49.41
2017-08-08T21:41:50.332Z,49.28
2017-08-08T21:44:21.407Z,49.00
2017-08-08T21:46:52.464Z,48.82
2017-08-08T21:49:23.983Z,48.64
2017-08-08T21:51:55.020Z,48.64
2017-08-08T21:54:34.964Z,48.67
2017-08-08T22:00:00.907Z,48.61
2017-08-08T22:05:43.453Z,48.93
2017-08-08T22:08:16.224Z,49.52
2017-08-08T22:10:52.556Z,49.52
2017-08-08T22:16:20.928Z,49.11
2017-08-08T22:18:52.040Z,49.16
2017-08-08T22:30:15.335Z,48.90
2017-08-08T22:32:47.285Z,48.90
2017-08-08T22:35:23.567Z,49.10
2017-08-08T22:37:56.534Z,49.01
2017-08-08T22:40:35.013Z,49.27
2017-08-08T22:43:11.859Z,49.09
2017-08-08T22:45:54.263Z,49.13
2017-08-08T22:48:36.122Z,49.29
2017-08-08T22:51:18.523Z,50.07
2017-08-08T22:53:52.622Z,50.92
2017-08-08T22:56:26.660Z,52.35
2017-08-08T22:58:58.594Z,52.03
2017-08-08T23:01:35.213Z,54.49
2017-08-08T23:04:25.115Z,54.47
2017-08-08T23:07:38.796Z,54.07
2017-08-08T23:13:17.187Z,53.41
2017-08-08T23:15:48.298Z,54.78
2017-08-08T23:18:20.734Z,55.18
2017-08-08T23:20:51.931Z,55.15
2017-08-08T23:23:22.972Z,55.75
2017-08-08T23:25:54.488Z,55.93
2017-08-08T23:28:25.517Z,56.10
2017-08-08T23:30:57.280Z,56.44
2017-08-08T23:36:09.465Z,56.97
2017-08-08T23:38:40.560Z,57.29
2017-08-08T23:41:11.631Z,57.62
2017-08-08T23:43:42.664Z,57.64
2017-08-08T23:46:14.477Z,57.65
2017-08-08T23:48:45.874Z,57.76
2017-08-08T23:51:17.483Z,58.05
2017-08-08T23:53:48.844Z,58.41
2017-08-08T23:56:20.002Z,58.36
2017-08-08T23:58:51.077Z,58.31
